Escanaba, MI

3:49 AM EST on February 20, 2018 (GMT -0500)
Delta County

Weather History for KESC - December, 2010

Change the Weather History Date:

Thursday, December 23, 2010

  Actual Average Record
Temperature  
Mean Temperature 27 °F -  
Max Temperature 30 °F 26 °F 48 °F (2007)
Min Temperature 24 °F 13 °F -18 °F (1983)
Degree Days  
Heating Degree Days 38    
Moisture  
Dew Point 18 °F    
Average Humidity 68    
Maximum Humidity 74    
Minimum Humidity 60    
Precipitation  
Precipitation 0.00 in - - ()
Sea Level Pressure  
Sea Level Pressure 30.43 in    
Wind  
Wind Speed 11 mph (NW)    
Max Wind Speed 15 mph    
Max Gust Speed 20 mph    
Visibility 10 miles    
Events      
Averages and records for this station are not official NWS values.
T = Trace of Precipitation, MM = Missing Value Source: NWS Daily Summary

Daily Weather History Graph

Daily Weather History Graph

Search for Another Location

Airport or City:

Trip Planner

Search our weather history database for the weather conditions in past years. The results will help you decide how hot, cold, wet, or windy it might be!

Date:

Astronomy

Dec. 23, 2010 Rise Set
Actual Time 8:27 AM EST 5:07 PM EST
Civil Twilight 7:52 AM EST 5:42 PM EST
Nautical Twilight 7:14 AM EST 6:20 PM EST
Astronomical Twilight 6:38 AM EST 6:56 PM EST
Moon 8:08 PM EST (12/23) 10:06 AM EST (12/23)
Length of Visible Light 9h 49m
Length of Day
8h 40m
Waning Gibbous, 93% of the Moon is Illuminated
Dec 23
Waning Gibbous
Dec 27
Last Quarter
Jan 4
New
Jan 12
First Quarter
Jan 19
Full

Hourly Weather History & Observations

Time (EST) Temp. Windchill Dew Point Humidity Pressure Visibility Wind Dir Wind Speed Gust Speed Precip Events Conditions
12:15 AM 26.6 °F 16.8 °F 17.6 °F 69% 30.40 in 10.0 mi NW 10.4 mph - N/A   Overcast
12:35 AM 26.6 °F 16.2 °F 17.6 °F 69% 30.40 in 10.0 mi NW 11.5 mph 17.3 mph N/A   Overcast
12:55 AM 26.6 °F 15.7 °F 17.6 °F 69% 30.39 in 10.0 mi NW 12.7 mph - N/A   Mostly Cloudy
1:15 AM 24.8 °F 14.0 °F 17.6 °F 74% 30.39 in 10.0 mi NW 11.5 mph - N/A   Scattered Clouds
1:35 AM 24.8 °F 14.6 °F 17.6 °F 74% 30.39 in 10.0 mi WNW 10.4 mph - N/A   Mostly Cloudy
1:55 AM 26.6 °F 15.7 °F 17.6 °F 69% 30.39 in 10.0 mi NW 12.7 mph - N/A   Overcast
2:15 AM 26.6 °F 16.2 °F 17.6 °F 69% 30.40 in 10.0 mi WNW 11.5 mph - N/A   Overcast
2:35 AM 26.6 °F 15.2 °F 17.6 °F 69% 30.40 in 10.0 mi WNW 13.8 mph 17.3 mph N/A   Overcast
2:55 AM 26.6 °F 16.2 °F 19.4 °F 74% 30.42 in 10.0 mi WNW 11.5 mph - N/A   Overcast
3:35 AM 26.6 °F 15.7 °F 17.6 °F 69% 30.43 in 10.0 mi WNW 12.7 mph 17.3 mph N/A   Overcast
3:55 AM 26.6 °F 15.7 °F 17.6 °F 69% 30.43 in 10.0 mi WNW 12.7 mph - N/A   Overcast
4:15 AM 26.6 °F 15.7 °F 17.6 °F 69% 30.43 in 10.0 mi WNW 12.7 mph - N/A   Overcast
4:35 AM 26.6 °F 16.8 °F 17.6 °F 69% 30.43 in 10.0 mi WNW 10.4 mph - N/A   Overcast
4:55 AM 26.6 °F 15.2 °F 17.6 °F 69% 30.42 in 10.0 mi NW 13.8 mph - N/A   Overcast
5:15 AM 26.6 °F 16.2 °F 17.6 °F 69% 30.42 in 10.0 mi NW 11.5 mph - N/A   Overcast
5:35 AM 26.6 °F 16.8 °F 17.6 °F 69% 30.42 in 10.0 mi NW 10.4 mph - N/A   Overcast
5:55 AM 26.6 °F 16.8 °F 17.6 °F 69% 30.42 in 10.0 mi WNW 10.4 mph - N/A   Overcast
6:15 AM 26.6 °F 17.5 °F 17.6 °F 69% 30.42 in 10.0 mi WNW 9.2 mph - N/A   Overcast
6:35 AM 26.6 °F 16.8 °F 17.6 °F 69% 30.43 in 10.0 mi WNW 10.4 mph - N/A   Overcast
6:55 AM 26.6 °F 16.8 °F 17.6 °F 69% 30.43 in 10.0 mi WNW 10.4 mph - N/A   Overcast
7:15 AM 26.6 °F 16.2 °F 17.6 °F 69% 30.43 in 10.0 mi WNW 11.5 mph - N/A   Overcast
7:35 AM 26.6 °F 16.8 °F 17.6 °F 69% 30.44 in 10.0 mi WNW 10.4 mph - N/A   Overcast
7:55 AM 26.6 °F 16.8 °F 17.6 °F 69% 30.44 in 10.0 mi WNW 10.4 mph - N/A   Overcast
8:15 AM 26.6 °F 18.2 °F 17.6 °F 69% 30.44 in 10.0 mi NW 8.1 mph - N/A   Overcast
8:35 AM 24.8 °F 16.1 °F 17.6 °F 74% 30.44 in 10.0 mi WNW 8.1 mph - N/A   Mostly Cloudy
8:55 AM 24.8 °F 16.1 °F 17.6 °F 74% 30.45 in 10.0 mi WNW 8.1 mph - N/A   Mostly Cloudy
9:15 AM 26.6 °F 17.5 °F 19.4 °F 74% 30.45 in 10.0 mi WNW 9.2 mph - N/A   Overcast
9:35 AM 26.6 °F 17.5 °F 19.4 °F 74% 30.45 in 10.0 mi WNW 9.2 mph - N/A   Overcast
9:55 AM 26.6 °F 19.1 °F 19.4 °F 74% 30.46 in 10.0 mi WNW 6.9 mph - N/A   Mostly Cloudy
10:15 AM 26.6 °F 16.8 °F 19.4 °F 74% 30.46 in 10.0 mi NW 10.4 mph 16.1 mph N/A   Clear
10:35 AM 28.4 °F 19.1 °F 19.4 °F 69% 30.46 in 10.0 mi NW 10.4 mph 17.3 mph N/A   Clear
10:55 AM 28.4 °F 17.5 °F 19.4 °F 69% 30.46 in 10.0 mi WNW 13.8 mph - N/A   Clear
11:15 AM 28.4 °F 19.7 °F 19.4 °F 69% 30.46 in 10.0 mi NW 9.2 mph - N/A   Partly Cloudy
11:35 AM 28.4 °F 19.7 °F 19.4 °F 69% 30.46 in 10.0 mi NW 9.2 mph 19.6 mph N/A   Partly Cloudy
11:55 AM 30.2 °F 19.8 °F 19.4 °F 64% 30.45 in 10.0 mi WNW 13.8 mph - N/A   Scattered Clouds
12:15 PM 30.2 °F 20.8 °F 19.4 °F 64% 30.45 in 10.0 mi NNW 11.5 mph 17.3 mph N/A   Scattered Clouds
12:35 PM 30.2 °F 20.8 °F 17.6 °F 60% 30.44 in 10.0 mi NNW 11.5 mph - N/A   Mostly Cloudy
12:55 PM 30.2 °F 19.3 °F 17.6 °F 60% 30.44 in 10.0 mi NW 15.0 mph - N/A   Overcast
1:15 PM 30.2 °F 19.8 °F 17.6 °F 60% 30.43 in 10.0 mi NW 13.8 mph - N/A   Overcast
1:35 PM 30.2 °F 21.9 °F 19.4 °F 64% 30.43 in 10.0 mi NNW 9.2 mph 17.3 mph N/A   Overcast
1:55 PM 30.2 °F 19.3 °F 17.6 °F 60% 30.43 in 10.0 mi NW 15.0 mph 19.6 mph N/A   Overcast
2:15 PM 30.2 °F 21.3 °F 17.6 °F 60% 30.43 in 10.0 mi NNW 10.4 mph 16.1 mph N/A   Overcast
2:35 PM 30.2 °F 20.8 °F 17.6 °F 60% 30.42 in 10.0 mi NNW 11.5 mph 16.1 mph N/A   Overcast
3:15 PM 30.2 °F 23.4 °F 19.4 °F 64% 30.42 in 10.0 mi NNW 6.9 mph - N/A   Overcast
3:35 PM 30.2 °F 21.3 °F 19.4 °F 64% 30.42 in 10.0 mi NNW 10.4 mph - N/A   Overcast
3:55 PM 30.2 °F 22.6 °F 19.4 °F 64% 30.42 in 10.0 mi NNW 8.1 mph - N/A   Overcast
4:15 PM 30.2 °F 23.4 °F 19.4 °F 64% 30.43 in 10.0 mi NNW 6.9 mph - N/A   Overcast
4:35 PM 30.2 °F 21.9 °F 19.4 °F 64% 30.43 in 10.0 mi North 9.2 mph - N/A   Overcast
4:55 PM 30.2 °F 22.6 °F 19.4 °F 64% 30.44 in 10.0 mi NNW 8.1 mph - N/A   Overcast
5:15 PM 28.4 °F 21.2 °F 19.4 °F 69% 30.44 in 10.0 mi NNW 6.9 mph - N/A   Overcast
5:35 PM 28.4 °F 20.4 °F 19.4 °F 69% 30.44 in 10.0 mi North 8.1 mph - N/A   Overcast
5:55 PM 28.4 °F 23.3 °F 19.4 °F 69% 30.44 in 10.0 mi North 4.6 mph - N/A   Overcast
6:15 PM 28.4 °F 21.2 °F 19.4 °F 69% 30.44 in 10.0 mi NNW 6.9 mph - N/A   Overcast
6:35 PM 28.4 °F 23.3 °F 19.4 °F 69% 30.44 in 10.0 mi NNW 4.6 mph - N/A   Overcast
6:55 PM 28.4 °F 20.4 °F 19.4 °F 69% 30.44 in 10.0 mi NNW 8.1 mph - N/A   Overcast
7:15 PM 28.4 °F 22.2 °F 19.4 °F 69% 30.44 in 10.0 mi NNW 5.8 mph - N/A   Overcast
7:35 PM 28.4 °F 23.3 °F 21.2 °F 74% 30.44 in 8.0 mi North 4.6 mph - N/A   Overcast
7:55 PM 28.4 °F 23.3 °F 21.2 °F 74% 30.44 in 10.0 mi North 4.6 mph - N/A   Overcast
8:15 PM 26.6 °F 20.0 °F 19.4 °F 74% 30.44 in 10.0 mi NNW 5.8 mph - N/A   Overcast
8:35 PM 26.6 °F 21.2 °F 19.4 °F 74% 30.43 in 10.0 mi North 4.6 mph - N/A   Overcast
9:15 PM 26.6 °F 20.0 °F 19.4 °F 74% 30.42 in 10.0 mi NNE 5.8 mph - N/A   Overcast
9:35 PM 26.6 °F 22.6 °F 19.4 °F 74% 30.43 in 10.0 mi North 3.5 mph - N/A   Overcast
9:55 PM 28.4 °F 19.7 °F 19.4 °F 69% 30.42 in 10.0 mi North 9.2 mph - N/A   Overcast
10:15 PM 26.6 °F 19.1 °F 19.4 °F 74% 30.43 in 10.0 mi NE 6.9 mph - N/A   Overcast
10:35 PM 26.6 °F 21.2 °F 21.2 °F 80% 30.43 in 10.0 mi NE 4.6 mph - N/A   Overcast
10:55 PM 26.6 °F - 21.2 °F 80% 30.43 in 10.0 mi Calm Calm - N/A   Overcast
11:15 PM 26.6 °F - 21.2 °F 80% 30.43 in 10.0 mi Calm Calm - N/A   Overcast
11:35 PM 26.6 °F - 21.2 °F 80% 30.43 in 10.0 mi Calm Calm - N/A   Overcast
11:55 PM 26.6 °F - 21.2 °F 80% 30.43 in 10.0 mi Calm Calm - N/A   Overcast